sensor_id;sensor_type;location;lat;lon;timestamp;temperature;humidity
35027;DHT22;60696;51.426;6.934;2023-04-01T00:01:10;9.50;99.90
35027;DHT22;60696;51.426;6.934;2023-04-01T00:03:37;9.60;99.90
35027;DHT22;60696;51.426;6.934;2023-04-01T00:06:03;9.50;99.90
35027;DHT22;60696;51.426;6.934;2023-04-01T00:08:29;9.60;99.90
35027;DHT22;60696;51.426;6.934;2023-04-01T00:10:58;9.60;99.90
35027;DHT22;60696;51.426;6.934;2023-04-01T00:13:25;9.60;99.90
35027;DHT22;60696;51.426;6.934;2023-04-01T00:15:55;9.60;99.90
35027;DHT22;60696;51.426;6.934;2023-04-01T00:18:23;9.60;99.90
35027;DHT22;60696;51.426;6.934;2023-04-01T00:20:51;9.70;99.90
35027;DHT22;60696;51.426;6.934;2023-04-01T00:23:17;9.70;99.90
35027;DHT22;60696;51.426;6.934;2023-04-01T00:25:47;9.70;99.90
35027;DHT22;60696;51.426;6.934;2023-04-01T00:28:15;9.60;99.90
35027;DHT22;60696;51.426;6.934;2023-04-01T00:30:41;9.60;99.90
35027;DHT22;60696;51.426;6.934;2023-04-01T00:33:06;9.60;99.90
35027;DHT22;60696;51.426;6.934;2023-04-01T00:35:32;9.60;99.90
35027;DHT22;60696;51.426;6.934;2023-04-01T00:37:58;9.50;99.90
35027;DHT22;60696;51.426;6.934;2023-04-01T00:40:35;9.50;99.90
35027;DHT22;60696;51.426;6.934;2023-04-01T00:43:01;9.50;99.90
35027;DHT22;60696;51.426;6.934;2023-04-01T00:45:41;9.50;99.90
35027;DHT22;60696;51.426;6.934;2023-04-01T00:48:11;9.50;99.90
35027;DHT22;60696;51.426;6.934;2023-04-01T00:50:40;9.50;99.90
35027;DHT22;60696;51.426;6.934;2023-04-01T00:53:08;9.50;99.90
35027;DHT22;60696;51.426;6.934;2023-04-01T00:55:40;9.40;99.90
35027;DHT22;60696;51.426;6.934;2023-04-01T00:58:13;9.40;99.90
35027;DHT22;60696;51.426;6.934;2023-04-01T01:00:42;9.50;99.90
35027;DHT22;60696;51.426;6.934;2023-04-01T01:03:17;9.40;99.90
35027;DHT22;60696;51.426;6.934;2023-04-01T01:12:11;9.50;99.90
35027;DHT22;60696;51.426;6.934;2023-04-01T01:22:58;9.50;99.90
35027;DHT22;60696;51.426;6.934;2023-04-01T01:28:27;9.50;99.90
35027;DHT22;60696;51.426;6.934;2023-04-01T01:31:20;9.50;99.90
35027;DHT22;60696;51.426;6.934;2023-04-01T01:33:50;9.50;99.90
35027;DHT22;60696;51.426;6.934;2023-04-01T01:36:21;9.50;99.90
35027;DHT22;60696;51.426;6.934;2023-04-01T01:38:48;9.50;99.90
35027;DHT22;60696;51.426;6.934;2023-04-01T01:41:16;9.40;99.90
35027;DHT22;60696;51.426;6.934;2023-04-01T01:43:46;9.50;99.90
35027;DHT22;60696;51.426;6.934;2023-04-01T01:46:16;9.40;99.90
35027;DHT22;60696;51.426;6.934;2023-04-01T01:48:42;9.40;99.90
35027;DHT22;60696;51.426;6.934;2023-04-01T01:51:08;9.50;99.90
35027;DHT22;60696;51.426;6.934;2023-04-01T01:53:34;9.50;99.90
35027;DHT22;60696;51.426;6.934;2023-04-01T01:56:00;9.50;99.90
35027;DHT22;60696;51.426;6.934;2023-04-01T01:58:42;9.50;99.90
35027;DHT22;60696;51.426;6.934;2023-04-01T02:01:14;9.50;99.90
35027;DHT22;60696;51.426;6.934;2023-04-01T02:03:42;9.50;99.90
35027;DHT22;60696;51.426;6.934;2023-04-01T02:06:11;9.50;99.90
35027;DHT22;60696;51.426;6.934;2023-04-01T02:08:50;9.50;99.90
35027;DHT22;60696;51.426;6.934;2023-04-01T02:11:19;9.50;99.90
35027;DHT22;60696;51.426;6.934;2023-04-01T02:14:26;9.50;99.90
35027;DHT22;60696;51.426;6.934;2023-04-01T02:19:16;9.40;99.90
35027;DHT22;60696;51.426;6.934;2023-04-01T02:21:53;9.50;99.90
35027;DHT22;60696;51.426;6.934;2023-04-01T02:24:22;9.50;99.90
35027;DHT22;60696;51.426;6.934;2023-04-01T02:26:53;9.50;99.90
35027;DHT22;60696;51.426;6.934;2023-04-01T02:29:20;9.50;99.90
35027;DHT22;60696;51.426;6.934;2023-04-01T02:31:47;9.50;99.90
35027;DHT22;60696;51.426;6.934;2023-04-01T02:34:13;9.40;99.90
35027;DHT22;60696;51.426;6.934;2023-04-01T02:36:39;9.40;99.90
35027;DHT22;60696;51.426;6.934;2023-04-01T02:39:06;9.40;99.90
35027;DHT22;60696;51.426;6.934;2023-04-01T02:41:31;9.40;99.90
35027;DHT22;60696;51.426;6.934;2023-04-01T02:44:03;9.40;99.90
35027;DHT22;60696;51.426;6.934;2023-04-01T02:46:29;9.40;99.90
35027;DHT22;60696;51.426;6.934;2023-04-01T02:48:55;9.40;99.90
35027;DHT22;60696;51.426;6.934;2023-04-01T02:51:20;9.40;99.90
35027;DHT22;60696;51.426;6.934;2023-04-01T02:53:46;9.40;99.90
35027;DHT22;60696;51.426;6.934;2023-04-01T02:56:11;9.40;99.90
35027;DHT22;60696;51.426;6.934;2023-04-01T02:58:37;9.40;99.90
35027;DHT22;60696;51.426;6.934;2023-04-01T03:01:03;9.50;99.90
35027;DHT22;60696;51.426;6.934;2023-04-01T03:03:28;9.40;99.90
35027;DHT22;60696;51.426;6.934;2023-04-01T03:05:54;9.50;99.90
35027;DHT22;60696;51.426;6.934;2023-04-01T03:08:21;9.50;99.90
35027;DHT22;60696;51.426;6.934;2023-04-01T03:10:47;9.50;99.90
35027;DHT22;60696;51.426;6.934;2023-04-01T03:13:15;9.50;99.90
35027;DHT22;60696;51.426;6.934;2023-04-01T03:15:41;9.50;99.90
35027;DHT22;60696;51.426;6.934;2023-04-01T03:18:07;9.40;99.90
35027;DHT22;60696;51.426;6.934;2023-04-01T03:20:35;9.40;99.90
35027;DHT22;60696;51.426;6.934;2023-04-01T03:23:01;9.30;99.90
35027;DHT22;60696;51.426;6.934;2023-04-01T03:25:26;9.30;99.90
35027;DHT22;60696;51.426;6.934;2023-04-01T03:27:53;9.30;99.90
35027;DHT22;60696;51.426;6.934;2023-04-01T03:30:19;9.30;99.90
35027;DHT22;60696;51.426;6.934;2023-04-01T03:32:45;9.30;99.90
35027;DHT22;60696;51.426;6.934;2023-04-01T03:35:10;9.30;99.90
35027;DHT22;60696;51.426;6.934;2023-04-01T03:40:04;9.30;99.90
35027;DHT22;60696;51.426;6.934;2023-04-01T03:42:30;9.30;99.90
35027;DHT22;60696;51.426;6.934;2023-04-01T03:44:57;9.30;99.90
35027;DHT22;60696;51.426;6.934;2023-04-01T03:47:23;9.30;99.90
35027;DHT22;60696;51.426;6.934;2023-04-01T03:49:48;9.30;99.90
35027;DHT22;60696;51.426;6.934;2023-04-01T03:52:14;9.30;99.90
35027;DHT22;60696;51.426;6.934;2023-04-01T03:54:40;9.30;99.90
35027;DHT22;60696;51.426;6.934;2023-04-01T03:57:06;9.20;99.90
35027;DHT22;60696;51.426;6.934;2023-04-01T03:59:31;9.30;99.90
35027;DHT22;60696;51.426;6.934;2023-04-01T04:01:57;9.30;99.90
35027;DHT22;60696;51.426;6.934;2023-04-01T04:04:23;9.30;99.90
35027;DHT22;60696;51.426;6.934;2023-04-01T04:06:48;9.30;99.90
35027;DHT22;60696;51.426;6.934;2023-04-01T04:09:14;9.30;99.90
35027;DHT22;60696;51.426;6.934;2023-04-01T04:11:39;9.30;99.90
35027;DHT22;60696;51.426;6.934;2023-04-01T04:14:05;9.30;99.90
35027;DHT22;60696;51.426;6.934;2023-04-01T04:16:30;9.30;99.90
35027;DHT22;60696;51.426;6.934;2023-04-01T04:18:56;9.30;99.90
35027;DHT22;60696;51.426;6.934;2023-04-01T04:21:22;9.30;99.90
35027;DHT22;60696;51.426;6.934;2023-04-01T04:23:47;9.30;99.90
35027;DHT22;60696;51.426;6.934;2023-04-01T04:26:14;9.30;99.90
35027;DHT22;60696;51.426;6.934;2023-04-01T04:28:40;9.30;99.90
35027;DHT22;60696;51.426;6.934;2023-04-01T04:31:06;9.30;99.90
35027;DHT22;60696;51.426;6.934;2023-04-01T04:33:34;9.40;99.90
35027;DHT22;60696;51.426;6.934;2023-04-01T04:36:00;9.40;99.90
35027;DHT22;60696;51.426;6.934;2023-04-01T04:38:26;9.30;99.90
35027;DHT22;60696;51.426;6.934;2023-04-01T04:40:52;9.30;99.90
35027;DHT22;60696;51.426;6.934;2023-04-01T04:43:18;9.30;99.90
35027;DHT22;60696;51.426;6.934;2023-04-01T04:45:44;9.30;99.90
35027;DHT22;60696;51.426;6.934;2023-04-01T04:48:11;9.40;99.90
35027;DHT22;60696;51.426;6.934;2023-04-01T04:50:41;9.40;99.90
35027;DHT22;60696;51.426;6.934;2023-04-01T04:53:10;9.40;99.90
35027;DHT22;60696;51.426;6.934;2023-04-01T04:55:35;9.40;99.90
35027;DHT22;60696;51.426;6.934;2023-04-01T04:58:01;9.40;99.90
35027;DHT22;60696;51.426;6.934;2023-04-01T05:00:27;9.40;99.90
35027;DHT22;60696;51.426;6.934;2023-04-01T05:02:52;9.40;99.90
35027;DHT22;60696;51.426;6.934;2023-04-01T05:05:18;9.40;99.90
35027;DHT22;60696;51.426;6.934;2023-04-01T05:07:43;9.40;99.90
35027;DHT22;60696;51.426;6.934;2023-04-01T05:10:09;9.40;99.90
35027;DHT22;60696;51.426;6.934;2023-04-01T05:12:35;9.40;99.90
35027;DHT22;60696;51.426;6.934;2023-04-01T05:15:05;9.40;99.90
35027;DHT22;60696;51.426;6.934;2023-04-01T05:17:31;9.40;99.90
35027;DHT22;60696;51.426;6.934;2023-04-01T05:19:57;9.40;99.90
35027;DHT22;60696;51.426;6.934;2023-04-01T05:22:22;9.40;99.90
35027;DHT22;60696;51.426;6.934;2023-04-01T05:24:48;9.40;99.90
35027;DHT22;60696;51.426;6.934;2023-04-01T05:27:14;9.40;99.90
35027;DHT22;60696;51.426;6.934;2023-04-01T05:29:40;9.40;99.90
35027;DHT22;60696;51.426;6.934;2023-04-01T05:32:05;9.30;99.90
35027;DHT22;60696;51.426;6.934;2023-04-01T05:34:31;9.30;99.90
35027;DHT22;60696;51.426;6.934;2023-04-01T05:36:57;9.40;99.90
35027;DHT22;60696;51.426;6.934;2023-04-01T05:39:22;9.40;99.90
35027;DHT22;60696;51.426;6.934;2023-04-01T05:41:48;9.30;99.90
35027;DHT22;60696;51.426;6.934;2023-04-01T05:44:14;9.30;99.90
35027;DHT22;60696;51.426;6.934;2023-04-01T05:46:40;9.40;99.90
35027;DHT22;60696;51.426;6.934;2023-04-01T05:49:06;9.40;99.90
35027;DHT22;60696;51.426;6.934;2023-04-01T05:51:31;9.30;99.90
35027;DHT22;60696;51.426;6.934;2023-04-01T05:53:57;9.40;99.90
35027;DHT22;60696;51.426;6.934;2023-04-01T05:56:22;9.40;99.90
35027;DHT22;60696;51.426;6.934;2023-04-01T05:58:51;9.40;99.90
35027;DHT22;60696;51.426;6.934;2023-04-01T06:01:18;9.40;99.90
35027;DHT22;60696;51.426;6.934;2023-04-01T06:03:44;9.40;99.90
35027;DHT22;60696;51.426;6.934;2023-04-01T06:06:14;9.40;99.90
35027;DHT22;60696;51.426;6.934;2023-04-01T06:08:41;9.40;99.90
35027;DHT22;60696;51.426;6.934;2023-04-01T06:22:13;9.40;99.90
35027;DHT22;60696;51.426;6.934;2023-04-01T06:25:36;9.40;99.90
35027;DHT22;60696;51.426;6.934;2023-04-01T06:30:47;9.40;99.90
35027;DHT22;60696;51.426;6.934;2023-04-01T06:36:34;9.30;99.90
35027;DHT22;60696;51.426;6.934;2023-04-01T06:44:16;9.40;99.90
35027;DHT22;60696;51.426;6.934;2023-04-01T06:55:30;9.50;99.90
35027;DHT22;60696;51.426;6.934;2023-04-01T06:57:59;9.50;99.90
35027;DHT22;60696;51.426;6.934;2023-04-01T07:00:35;9.50;99.90
35027;DHT22;60696;51.426;6.934;2023-04-01T07:06:02;9.60;99.90
35027;DHT22;60696;51.426;6.934;2023-04-01T07:08:29;9.50;99.90
35027;DHT22;60696;51.426;6.934;2023-04-01T07:11:01;9.50;99.90
35027;DHT22;60696;51.426;6.934;2023-04-01T07:13:46;9.50;99.90
35027;DHT22;60696;51.426;6.934;2023-04-01T07:16:29;9.50;99.90
35027;DHT22;60696;51.426;6.934;2023-04-01T07:19:03;9.50;99.90
35027;DHT22;60696;51.426;6.934;2023-04-01T07:22:05;9.50;99.90
35027;DHT22;60696;51.426;6.934;2023-04-01T07:24:39;9.50;99.90
35027;DHT22;60696;51.426;6.934;2023-04-01T07:27:09;9.60;99.90
35027;DHT22;60696;51.426;6.934;2023-04-01T07:29:35;9.60;99.90
35027;DHT22;60696;51.426;6.934;2023-04-01T07:35:26;9.60;99.90
35027;DHT22;60696;51.426;6.934;2023-04-01T07:38:09;9.70;99.90
35027;DHT22;60696;51.426;6.934;2023-04-01T07:49:06;9.70;99.90
35027;DHT22;60696;51.426;6.934;2023-04-01T07:54:50;9.60;99.90
35027;DHT22;60696;51.426;6.934;2023-04-01T07:57:30;9.60;99.90
35027;DHT22;60696;51.426;6.934;2023-04-01T08:00:16;9.70;99.90
35027;DHT22;60696;51.426;6.934;2023-04-01T08:17:02;9.80;99.90
35027;DHT22;60696;51.426;6.934;2023-04-01T08:19:51;9.80;99.90
35027;DHT22;60696;51.426;6.934;2023-04-01T08:22:53;9.70;99.90
35027;DHT22;60696;51.426;6.934;2023-04-01T08:25:22;9.60;99.90
35027;DHT22;60696;51.426;6.934;2023-04-01T08:30:47;9.70;99.90
35027;DHT22;60696;51.426;6.934;2023-04-01T08:33:31;9.70;99.90
35027;DHT22;60696;51.426;6.934;2023-04-01T08:36:05;9.80;99.90
35027;DHT22;60696;51.426;6.934;2023-04-01T08:57:53;9.90;99.90
35027;DHT22;60696;51.426;6.934;2023-04-01T09:03:33;10.00;99.90
35027;DHT22;60696;51.426;6.934;2023-04-01T09:06:31;10.00;99.90
35027;DHT22;60696;51.426;6.934;2023-04-01T09:14:53;10.10;99.90
35027;DHT22;60696;51.426;6.934;2023-04-01T09:21:14;10.10;99.90
35027;DHT22;60696;51.426;6.934;2023-04-01T09:34:13;10.50;99.90
35027;DHT22;60696;51.426;6.934;2023-04-01T09:37:21;10.50;99.90
35027;DHT22;60696;51.426;6.934;2023-04-01T09:43:06;10.50;99.90
35027;DHT22;60696;51.426;6.934;2023-04-01T09:48:24;10.50;99.90
35027;DHT22;60696;51.426;6.934;2023-04-01T09:51:31;10.60;99.90
35027;DHT22;60696;51.426;6.934;2023-04-01T10:18:40;10.70;99.90
35027;DHT22;60696;51.426;6.934;2023-04-01T10:43:39;11.00;99.90
35027;DHT22;60696;51.426;6.934;2023-04-01T10:54:13;10.90;99.90
35027;DHT22;60696;51.426;6.934;2023-04-01T10:56:59;10.80;99.90
35027;DHT22;60696;51.426;6.934;2023-04-01T11:05:29;10.70;99.90
35027;DHT22;60696;51.426;6.934;2023-04-01T11:27:55;10.70;99.90
35027;DHT22;60696;51.426;6.934;2023-04-01T11:33:36;10.80;99.90
35027;DHT22;60696;51.426;6.934;2023-04-01T11:39:01;10.80;99.90
35027;DHT22;60696;51.426;6.934;2023-04-01T11:59:41;10.90;99.90
35027;DHT22;60696;51.426;6.934;2023-04-01T12:05:32;10.80;99.90
35027;DHT22;60696;51.426;6.934;2023-04-01T12:08:33;10.80;99.90
35027;DHT22;60696;51.426;6.934;2023-04-01T12:29:09;10.70;99.90
35027;DHT22;60696;51.426;6.934;2023-04-01T12:35:05;10.70;99.90
35027;DHT22;60696;51.426;6.934;2023-04-01T12:40:51;10.80;99.90
35027;DHT22;60696;51.426;6.934;2023-04-01T12:43:42;10.80;99.90
35027;DHT22;60696;51.426;6.934;2023-04-01T12:49:22;10.80;99.90
35027;DHT22;60696;51.426;6.934;2023-04-01T12:52:07;10.90;99.90
35027;DHT22;60696;51.426;6.934;2023-04-01T12:55:08;10.90;99.90
35027;DHT22;60696;51.426;6.934;2023-04-01T12:57:51;10.90;99.90
35027;DHT22;60696;51.426;6.934;2023-04-01T13:04:26;10.90;99.90
35027;DHT22;60696;51.426;6.934;2023-04-01T13:07:36;10.80;99.90
35027;DHT22;60696;51.426;6.934;2023-04-01T13:10:20;10.70;99.90
35027;DHT22;60696;51.426;6.934;2023-04-01T13:19:18;10.80;99.90
35027;DHT22;60696;51.426;6.934;2023-04-01T13:27:38;10.90;99.90
35027;DHT22;60696;51.426;6.934;2023-04-01T13:35:25;10.90;99.90
35027;DHT22;60696;51.426;6.934;2023-04-01T13:38:16;10.80;99.90
35027;DHT22;60696;51.426;6.934;2023-04-01T13:55:00;10.80;99.90
35027;DHT22;60696;51.426;6.934;2023-04-01T13:57:48;10.80;99.90
35027;DHT22;60696;51.426;6.934;2023-04-01T14:03:37;10.70;99.90
35027;DHT22;60696;51.426;6.934;2023-04-01T14:06:19;10.70;99.90
35027;DHT22;60696;51.426;6.934;2023-04-01T14:11:53;10.70;99.90
35027;DHT22;60696;51.426;6.934;2023-04-01T14:14:45;10.70;99.90
35027;DHT22;60696;51.426;6.934;2023-04-01T14:20:30;10.60;99.90
35027;DHT22;60696;51.426;6.934;2023-04-01T14:23:08;10.50;99.90
35027;DHT22;60696;51.426;6.934;2023-04-01T14:25:53;10.60;99.90
35027;DHT22;60696;51.426;6.934;2023-04-01T14:28:32;10.60;99.90
35027;DHT22;60696;51.426;6.934;2023-04-01T14:40:05;10.70;99.90
35027;DHT22;60696;51.426;6.934;2023-04-01T14:48:49;10.80;99.90
35027;DHT22;60696;51.426;6.934;2023-04-01T14:51:38;10.80;99.90
35027;DHT22;60696;51.426;6.934;2023-04-01T14:54:49;10.90;99.90
35027;DHT22;60696;51.426;6.934;2023-04-01T14:59:59;10.90;99.90
35027;DHT22;60696;51.426;6.934;2023-04-01T15:02:57;10.90;99.90
35027;DHT22;60696;51.426;6.934;2023-04-01T15:43:42;10.60;99.90
35027;DHT22;60696;51.426;6.934;2023-04-01T15:54:30;10.60;99.90
35027;DHT22;60696;51.426;6.934;2023-04-01T15:57:20;10.60;99.90
35027;DHT22;60696;51.426;6.934;2023-04-01T16:02:48;10.70;99.90
35027;DHT22;60696;51.426;6.934;2023-04-01T16:05:42;10.70;99.90
35027;DHT22;60696;51.426;6.934;2023-04-01T16:11:00;10.80;99.90
35027;DHT22;60696;51.426;6.934;2023-04-01T16:16:35;10.90;99.90
35027;DHT22;60696;51.426;6.934;2023-04-01T16:19:20;10.90;99.90
35027;DHT22;60696;51.426;6.934;2023-04-01T16:29:55;10.80;99.90
35027;DHT22;60696;51.426;6.934;2023-04-01T16:35:29;10.80;99.90
35027;DHT22;60696;51.426;6.934;2023-04-01T16:38:01;10.70;99.90
35027;DHT22;60696;51.426;6.934;2023-04-01T16:40:40;10.70;99.90
35027;DHT22;60696;51.426;6.934;2023-04-01T16:43:16;10.70;99.90
35027;DHT22;60696;51.426;6.934;2023-04-01T16:46:20;10.60;99.90
35027;DHT22;60696;51.426;6.934;2023-04-01T16:54:45;10.70;99.90
35027;DHT22;60696;51.426;6.934;2023-04-01T16:57:19;10.60;99.90
35027;DHT22;60696;51.426;6.934;2023-04-01T17:00:21;10.60;99.90
35027;DHT22;60696;51.426;6.934;2023-04-01T17:02:52;10.60;99.90
35027;DHT22;60696;51.426;6.934;2023-04-01T17:05:40;10.50;99.90
35027;DHT22;60696;51.426;6.934;2023-04-01T17:08:39;10.50;99.90
35027;DHT22;60696;51.426;6.934;2023-04-01T17:27:23;10.50;99.90
35027;DHT22;60696;51.426;6.934;2023-04-01T17:35:36;10.40;99.90
35027;DHT22;60696;51.426;6.934;2023-04-01T17:43:52;10.30;99.90
35027;DHT22;60696;51.426;6.934;2023-04-01T17:52:37;10.30;99.90
35027;DHT22;60696;51.426;6.934;2023-04-01T17:57:54;10.30;99.90
35027;DHT22;60696;51.426;6.934;2023-04-01T18:06:03;10.30;99.90
35027;DHT22;60696;51.426;6.934;2023-04-01T18:16:51;10.30;99.90
35027;DHT22;60696;51.426;6.934;2023-04-01T18:19:42;10.30;99.90
35027;DHT22;60696;51.426;6.934;2023-04-01T18:22:21;10.30;99.90
35027;DHT22;60696;51.426;6.934;2023-04-01T18:25:12;10.30;99.90
35027;DHT22;60696;51.426;6.934;2023-04-01T18:27:44;10.30;99.90
35027;DHT22;60696;51.426;6.934;2023-04-01T18:32:53;10.30;99.90
35027;DHT22;60696;51.426;6.934;2023-04-01T18:57:46;10.20;99.90
35027;DHT22;60696;51.426;6.934;2023-04-01T19:00:45;10.20;99.90
35027;DHT22;60696;51.426;6.934;2023-04-01T19:03:20;10.20;99.90
35027;DHT22;60696;51.426;6.934;2023-04-01T19:05:49;10.30;99.90
35027;DHT22;60696;51.426;6.934;2023-04-01T19:08:34;10.30;99.90
35027;DHT22;60696;51.426;6.934;2023-04-01T19:11:05;10.30;99.90
35027;DHT22;60696;51.426;6.934;2023-04-01T19:32:57;10.00;99.90
35027;DHT22;60696;51.426;6.934;2023-04-01T19:40:58;10.10;99.90
35027;DHT22;60696;51.426;6.934;2023-04-01T19:46:48;10.10;99.90
35027;DHT22;60696;51.426;6.934;2023-04-01T20:00:03;9.80;99.90
35027;DHT22;60696;51.426;6.934;2023-04-01T20:06:00;9.80;99.90
35027;DHT22;60696;51.426;6.934;2023-04-01T20:08:42;9.80;99.90
35027;DHT22;60696;51.426;6.934;2023-04-01T20:12:05;9.80;99.90
35027;DHT22;60696;51.426;6.934;2023-04-01T20:17:08;9.60;99.90
35027;DHT22;60696;51.426;6.934;2023-04-01T20:20:32;9.50;99.90
35027;DHT22;60696;51.426;6.934;2023-04-01T20:27:58;9.60;99.90
35027;DHT22;60696;51.426;6.934;2023-04-01T20:41:59;9.20;99.90
35027;DHT22;60696;51.426;6.934;2023-04-01T21:01:38;9.20;99.90
35027;DHT22;60696;51.426;6.934;2023-04-01T21:04:41;9.10;99.90
35027;DHT22;60696;51.426;6.934;2023-04-01T21:07:32;8.90;99.90
35027;DHT22;60696;51.426;6.934;2023-04-01T21:26:50;8.60;99.90
35027;DHT22;60696;51.426;6.934;2023-04-01T21:32:30;8.50;99.90
35027;DHT22;60696;51.426;6.934;2023-04-01T21:38:40;8.40;99.90
35027;DHT22;60696;51.426;6.934;2023-04-01T21:47:29;8.40;99.90
35027;DHT22;60696;51.426;6.934;2023-04-01T22:06:56;8.10;99.90
35027;DHT22;60696;51.426;6.934;2023-04-01T22:09:43;8.10;99.90
35027;DHT22;60696;51.426;6.934;2023-04-01T22:12:35;8.20;99.90
35027;DHT22;60696;51.426;6.934;2023-04-01T22:18:34;8.20;99.90
35027;DHT22;60696;51.426;6.934;2023-04-01T22:21:13;8.10;99.90
35027;DHT22;60696;51.426;6.934;2023-04-01T22:26:55;8.00;99.90
35027;DHT22;60696;51.426;6.934;2023-04-01T22:29:24;7.90;99.90
35027;DHT22;60696;51.426;6.934;2023-04-01T22:32:13;7.80;99.90
35027;DHT22;60696;51.426;6.934;2023-04-01T22:39:01;7.70;99.90
35027;DHT22;60696;51.426;6.934;2023-04-01T22:44:01;7.60;99.90
35027;DHT22;60696;51.426;6.934;2023-04-01T22:46:53;7.70;99.90
35027;DHT22;60696;51.426;6.934;2023-04-01T22:49:36;7.60;99.90
35027;DHT22;60696;51.426;6.934;2023-04-01T22:54:52;7.60;99.90
35027;DHT22;60696;51.426;6.934;2023-04-01T23:00:33;7.60;99.90
35027;DHT22;60696;51.426;6.934;2023-04-01T23:03:33;7.50;99.90
35027;DHT22;60696;51.426;6.934;2023-04-01T23:06:02;7.50;99.90
35027;DHT22;60696;51.426;6.934;2023-04-01T23:11:04;7.50;99.90
35027;DHT22;60696;51.426;6.934;2023-04-01T23:13:36;7.40;99.90
35027;DHT22;60696;51.426;6.934;2023-04-01T23:16:03;7.30;99.90
35027;DHT22;60696;51.426;6.934;2023-04-01T23:18:52;7.20;99.90
35027;DHT22;60696;51.426;6.934;2023-04-01T23:24:15;7.20;99.90
35027;DHT22;60696;51.426;6.934;2023-04-01T23:27:08;7.10;99.90
35027;DHT22;60696;51.426;6.934;2023-04-01T23:29:36;7.10;99.90
35027;DHT22;60696;51.426;6.934;2023-04-01T23:32:09;7.10;99.90
35027;DHT22;60696;51.426;6.934;2023-04-01T23:34:38;7.20;99.90
35027;DHT22;60696;51.426;6.934;2023-04-01T23:37:10;7.10;99.90
35027;DHT22;60696;51.426;6.934;2023-04-01T23:39:42;7.10;99.90
35027;DHT22;60696;51.426;6.934;2023-04-01T23:44:40;6.90;99.90
35027;DHT22;60696;51.426;6.934;2023-04-01T23:47:08;6.90;99.90
35027;DHT22;60696;51.426;6.934;2023-04-01T23:49:40;7.00;99.90
35027;DHT22;60696;51.426;6.934;2023-04-01T23:52:21;6.90;99.90
35027;DHT22;60696;51.426;6.934;2023-04-01T23:54:51;7.00;99.90
35027;DHT22;60696;51.426;6.934;2023-04-01T23:57:28;7.00;99.90
